Time;durP1;ratioP1;P1;durP2;ratioP2;P2;SDS_P1;SDS_P2;PMS_P1;PMS_P2;Temp;Humidity;BMP_temperature;BMP_pressure;BME280_temperature;BME280_humidity;BME280_pressure;Samples;Min_cycle;Max_cycle;Signal;HPM_P1;HPM_P2
2023/12/29 00:00:43;;;;;;;10.10;6.22;;;;;;;12.12;100.00;102125.91;10609473;27;20050;-82
2023/12/29 00:06:08;;;;;;;12.20;8.75;;;;;;;12.09;100.00;102127.53;10608905;27;20134;-82
2023/12/29 00:11:30;;;;;;;13.95;6.88;;;;;;;12.34;100.00;102131.00;10597958;27;20464;-81
2023/12/29 00:16:57;;;;;;;17.00;9.07;;;;;;;12.42;100.00;102127.69;10609088;27;20096;-82
2023/12/29 00:22:21;;;;;;;11.57;8.10;;;;;;;12.20;100.00;102127.06;10635766;27;20100;-81
2023/12/29 00:27:44;;;;;;;11.75;5.97;;;;;;;12.00;100.00;102124.63;10591518;27;20506;-80
2023/12/29 00:33:06;;;;;;;11.38;7.35;;;;;;;12.01;100.00;102132.63;10592850;27;20051;-81
2023/12/29 00:38:31;;;;;;;11.13;6.25;;;;;;;12.06;100.00;102133.66;10593606;27;20054;-82
2023/12/29 00:43:54;;;;;;;16.73;8.98;;;;;;;12.25;100.00;102132.47;10606618;27;20071;-82
2023/12/29 00:49:17;;;;;;;15.45;9.00;;;;;;;12.14;100.00;102137.44;10607411;27;20122;-81
2023/12/29 00:54:43;;;;;;;15.95;9.93;;;;;;;12.04;100.00;102134.44;10577221;27;20058;-81
2023/12/29 01:00:07;;;;;;;31.45;16.55;;;;;;;12.15;100.00;102139.22;10602505;27;20047;-79
2023/12/29 01:05:30;;;;;;;21.55;9.85;;;;;;;12.27;100.00;102133.44;10598096;27;20047;-79
2023/12/29 01:10:54;;;;;;;33.47;21.25;;;;;;;12.19;100.00;102138.50;10591495;27;20039;-80
2023/12/29 01:16:17;;;;;;;21.40;9.88;;;;;;;12.45;100.00;102143.69;10582627;27;20491;-79
2023/12/29 01:21:40;;;;;;;17.00;9.70;;;;;;;12.65;100.00;102142.53;10606451;27;20187;-79
2023/12/29 01:27:05;;;;;;;19.38;10.95;;;;;;;12.71;100.00;102146.25;10590850;27;20510;-80
2023/12/29 01:32:27;;;;;;;7.78;5.65;;;;;;;12.83;100.00;102139.50;10613329;27;20046;-80
2023/12/29 01:37:50;;;;;;;9.55;6.40;;;;;;;12.82;100.00;102129.75;10570459;27;20050;-81
2023/12/29 01:43:14;;;;;;;17.48;8.07;;;;;;;12.51;100.00;102125.31;10571348;27;20039;-81
2023/12/29 01:48:37;;;;;;;9.52;5.15;;;;;;;12.56;100.00;102129.00;10594473;27;20154;-82
2023/12/29 01:54:01;;;;;;;9.32;5.82;;;;;;;12.38;100.00;102121.41;10617723;27;20055;-83
2023/12/29 01:59:26;;;;;;;7.90;4.70;;;;;;;12.54;100.00;102118.34;10605456;27;20051;-83
2023/12/29 02:04:49;;;;;;;12.30;10.48;;;;;;;12.50;100.00;102111.19;10618975;27;20043;-81
2023/12/29 02:10:15;;;;;;;12.18;6.78;;;;;;;12.55;100.00;102108.66;10603579;27;20109;-81
2023/12/29 02:15:40;;;;;;;15.70;10.73;;;;;;;12.52;100.00;102098.88;10589805;27;20127;-81
2023/12/29 02:21:04;;;;;;;28.17;14.98;;;;;;;12.50;100.00;102097.94;10603745;27;20081;-81
2023/12/29 02:26:35;;;;;;;15.45;9.50;;;;;;;12.47;100.00;102086.38;10563520;27;20138;-81
2023/12/29 02:32:01;;;;;;;13.25;9.73;;;;;;;12.35;100.00;102082.47;10589226;27;20050;-81
2023/12/29 02:37:25;;;;;;;19.88;10.23;;;;;;;12.19;100.00;102076.69;10613908;27;20046;-81
2023/12/29 02:42:50;;;;;;;9.27;5.45;;;;;;;12.14;100.00;102075.66;10602874;27;20054;-80
2023/12/29 02:48:12;;;;;;;8.57;4.57;;;;;;;12.45;100.00;102061.56;10595772;27;20508;-80
2023/12/29 02:53:36;;;;;;;9.10;4.90;;;;;;;12.42;100.00;102061.47;10599876;27;20051;-81
2023/12/29 02:59:01;;;;;;;9.88;5.30;;;;;;;12.55;100.00;102056.56;10591548;27;20039;-80
2023/12/29 03:04:25;;;;;;;7.63;5.45;;;;;;;12.55;100.00;102061.88;10577928;27;20050;-81
2023/12/29 03:09:47;;;;;;;8.15;6.32;;;;;;;12.44;100.00;102049.19;10609377;27;20047;-80
2023/12/29 03:15:12;;;;;;;14.13;7.72;;;;;;;12.56;100.00;102045.13;10602092;27;20043;-81
2023/12/29 03:20:34;;;;;;;13.52;5.82;;;;;;;12.50;100.00;102057.31;10595164;27;20058;-82
2023/12/29 03:25:57;;;;;;;9.82;4.97;;;;;;;12.45;100.00;102048.34;10610876;27;20493;-82
2023/12/29 03:31:22;;;;;;;10.35;6.15;;;;;;;12.32;100.00;102050.63;10609427;27;20047;-82
2023/12/29 03:36:44;;;;;;;9.13;5.47;;;;;;;12.13;100.00;102050.03;10584635;27;20132;-80
2023/12/29 03:42:08;;;;;;;6.57;4.45;;;;;;;12.12;100.00;102056.19;10584928;27;20047;-82
2023/12/29 03:47:33;;;;;;;8.93;4.78;;;;;;;12.38;100.00;102057.84;10609577;27;20100;-81
2023/12/29 03:52:56;;;;;;;9.40;5.85;;;;;;;12.55;100.00;102061.88;10579903;27;20043;-81
2023/12/29 03:58:18;;;;;;;10.40;6.05;;;;;;;12.67;100.00;102063.97;10556032;27;20048;-81
2023/12/29 04:03:43;;;;;;;9.40;5.57;;;;;;;12.71;100.00;102071.16;10580964;28;20071;-82
2023/12/29 04:09:06;;;;;;;10.48;5.60;;;;;;;12.57;100.00;102075.16;10556042;27;20039;-82
2023/12/29 04:14:28;;;;;;;14.25;6.90;;;;;;;12.41;100.00;102080.84;10571210;27;20146;-82
2023/12/29 04:19:53;;;;;;;9.60;5.40;;;;;;;12.57;100.00;102091.06;10557337;27;20042;-82
2023/12/29 04:25:16;;;;;;;10.10;5.13;;;;;;;12.62;100.00;102097.38;10570688;28;20408;-82
2023/12/29 04:30:39;;;;;;;11.68;6.70;;;;;;;12.28;100.00;102098.13;10578472;27;20055;-81
2023/12/29 04:36:05;;;;;;;10.40;5.90;;;;;;;12.37;100.00;102109.03;10563555;27;20063;-80
2023/12/29 04:41:27;;;;;;;9.57;5.15;;;;;;;12.23;100.00;102107.69;10572286;28;20056;-81
2023/12/29 04:46:50;;;;;;;8.68;4.78;;;;;;;12.31;100.00;102106.19;10575900;27;20047;-82
2023/12/29 04:52:14;;;;;;;8.60;5.45;;;;;;;12.39;100.00;102104.69;10550445;28;20573;-81
2023/12/29 04:57:36;;;;;;;7.60;4.13;;;;;;;12.41;100.00;102104.69;10576687;27;20108;-82
2023/12/29 05:02:59;;;;;;;7.38;4.10;;;;;;;12.43;100.00;102103.00;10579040;27;20051;-81
2023/12/29 05:08:23;;;;;;;12.38;5.60;;;;;;;12.46;100.00;102109.31;10552184;27;20039;-82
2023/12/29 05:13:45;;;;;;;12.90;6.75;;;;;;;12.22;100.00;102105.91;10558308;27;20049;-82
2023/12/29 05:19:09;;;;;;;21.17;13.40;;;;;;;12.35;100.00;102110.72;10562559;27;20048;-81
2023/12/29 05:24:33;;;;;;;17.60;12.82;;;;;;;12.48;100.00;102102.28;10577301;28;20123;-81
2023/12/29 05:29:55;;;;;;;14.43;9.93;;;;;;;12.38;100.00;102105.53;10562933;28;20399;-83
2023/12/29 05:35:18;;;;;;;17.67;11.60;;;;;;;12.42;100.00;102104.75;10559095;28;20104;-82
2023/12/29 05:40:42;;;;;;;9.75;7.15;;;;;;;12.35;100.00;102100.13;10563107;27;20047;-82
2023/12/29 05:46:11;;;;;;;16.73;8.48;;;;;;;12.52;100.00;102098.88;10577147;27;20376;-82
2023/12/29 05:51:34;;;;;;;8.57;5.57;;;;;;;12.61;100.00;102098.22;10604674;27;20047;-81
2023/12/29 05:56:58;;;;;;;54.88;33.65;;;;;;;12.68;100.00;102103.75;10602368;27;20138;-80
2023/12/29 06:02:22;;;;;;;45.63;32.10;;;;;;;12.70;100.00;102102.06;10605145;27;20109;-82
2023/12/29 06:07:44;;;;;;;36.85;24.98;;;;;;;12.74;100.00;102111.88;10587433;27;20039;-82
2023/12/29 06:13:09;;;;;;;53.65;38.28;;;;;;;12.92;100.00;102110.63;10601108;27;20062;-81
2023/12/29 06:18:32;;;;;;;111.78;82.35;;;;;;;13.14;100.00;102105.06;10603293;27;20039;-82
2023/12/29 06:23:54;;;;;;;91.72;69.25;;;;;;;14.04;100.00;102113.53;10583256;27;20071;-82
2023/12/29 06:29:18;;;;;;;95.25;74.18;;;;;;;17.28;100.00;102092.31;10603891;27;20051;-82
2023/12/29 06:34:41;;;;;;;73.07;60.92;;;;;;;19.86;100.00;102088.13;10603819;27;20039;-82
2023/12/29 06:40:06;;;;;;;39.85;31.73;;;;;;;21.45;100.00;102086.56;10594912;27;20058;-82
2023/12/29 06:45:30;;;;;;;20.35;16.38;;;;;;;22.78;100.00;102086.06;10601681;28;20045;-80
2023/12/29 06:50:53;;;;;;;8.93;5.20;;;;;;;23.51;97.11;102087.69;10601604;27;20057;-80
2023/12/29 06:56:16;;;;;;;10.93;5.68;;;;;;;24.15;92.51;102088.34;10614998;27;20055;-82
2023/12/29 07:01:41;;;;;;;5.93;5.18;;;;;;;24.28;89.90;102089.03;10587619;27;20135;-82
2023/12/29 07:07:04;;;;;;;10.13;5.28;;;;;;;24.34;91.51;102101.50;10598947;27;20067;-83
2023/12/29 07:12:27;;;;;;;7.68;4.30;;;;;;;24.58;87.44;102088.38;10598596;27;20067;-81
2023/12/29 07:17:51;;;;;;;7.65;4.70;;;;;;;25.35;78.77;102103.78;10632168;27;20054;-83
2023/12/29 07:23:14;;;;;;;8.75;4.47;;;;;;;25.49;76.41;102104.34;10612737;27;20051;-83
2023/12/29 07:28:36;;;;;;;8.18;4.50;;;;;;;26.70;67.12;102102.88;10571024;27;20163;-84
2023/12/29 07:34:01;;;;;;;6.82;4.35;;;;;;;26.73;64.05;102101.88;10590147;27;20054;-85
2023/12/29 07:39:23;;;;;;;7.15;4.55;;;;;;;26.85;61.47;102102.41;10595694;27;20083;-83
2023/12/29 07:44:46;;;;;;;10.40;5.25;;;;;;;27.74;57.35;102101.38;10608574;27;20071;-84
2023/12/29 07:50:11;;;;;;;6.95;5.60;;;;;;;28.74;49.93;102106.81;10593997;27;20100;-85
2023/12/29 07:55:34;;;;;;;10.05;4.70;;;;;;;28.62;49.01;102097.28;10595311;27;20542;-83
2023/12/29 08:00:57;;;;;;;9.18;4.40;;;;;;;29.80;45.46;102107.91;10581790;27;20049;-87
2023/12/29 08:06:21;;;;;;;7.32;4.30;;;;;;;30.37;42.83;102107.22;10607279;27;20050;-84
2023/12/29 08:11:44;;;;;;;6.53;4.95;;;;;;;31.00;41.06;102112.50;10638903;27;20043;-84
2023/12/29 08:17:07;;;;;;;12.50;6.47;;;;;;;31.39;38.78;102105.09;10618335;27;20070;-82
2023/12/29 08:22:32;;;;;;;11.10;6.57;;;;;;;31.40;38.06;102114.19;10594973;27;20108;-83
2023/12/29 08:27:55;;;;;;;13.95;11.18;;;;;;;32.08;37.73;102110.69;10600735;27;20088;-81
2023/12/29 08:33:17;;;;;;;9.73;6.65;;;;;;;31.88;37.11;102099.91;10564213;27;20074;-84
2023/12/29 08:38:42;;;;;;;23.38;16.80;;;;;;;32.18;36.26;102098.31;10597821;27;20047;-86
2023/12/29 08:44:07;;;;;;;10.00;5.65;;;;;;;32.06;35.82;102098.94;10592036;27;20043;-86
2023/12/29 08:49:30;;;;;;;8.45;4.60;;;;;;;32.60;35.08;102094.22;10592576;27;20154;-83
2023/12/29 08:54:54;;;;;;;9.23;6.05;;;;;;;33.12;34.11;102092.19;10621983;27;20118;-83
2023/12/29 09:00:17;;;;;;;5.13;3.70;;;;;;;32.79;33.51;102089.53;10593878;27;20084;-85
2023/12/29 09:05:40;;;;;;;6.53;4.00;;;;;;;32.90;33.00;102083.44;10599773;27;20047;-83
2023/12/29 09:11:06;;;;;;;4.97;3.63;;;;;;;33.25;32.23;102075.97;10592614;27;20059;-85
2023/12/29 09:16:29;;;;;;;7.00;4.40;;;;;;;33.25;32.19;102070.50;10601125;27;20047;-83
2023/12/29 09:21:52;;;;;;;13.73;9.60;;;;;;;33.67;31.35;102075.28;10590067;27;20096;-84
2023/12/29 09:27:17;;;;;;;11.05;7.72;;;;;;;34.01;31.31;102055.81;10605971;27;20059;-83
2023/12/29 09:32:39;;;;;;;7.07;5.03;;;;;;;33.56;31.34;102054.00;10604328;27;20065;-82
2023/12/29 09:38:03;;;;;;;9.73;6.32;;;;;;;33.00;31.36;102055.47;10605649;27;20039;-81
2023/12/29 09:43:27;;;;;;;8.98;6.05;;;;;;;32.51;32.38;102049.09;10596891;27;20099;-82
2023/12/29 09:48:52;;;;;;;10.05;5.15;;;;;;;32.70;32.09;102041.66;10633214;27;20104;-81
2023/12/29 09:54:15;;;;;;;6.78;3.90;;;;;;;32.72;32.04;102031.53;10602458;27;20066;-82
2023/12/29 09:59:41;;;;;;;7.32;4.22;;;;;;;32.60;32.66;102021.25;10604633;27;20183;-84
2023/12/29 10:05:05;;;;;;;7.93;4.47;;;;;;;33.47;31.60;102019.84;10589567;27;20042;-83
2023/12/29 10:10:29;;;;;;;7.55;4.22;;;;;;;33.86;30.86;102013.81;10602863;27;20039;-88
2023/12/29 10:16:05;;;;;;;10.85;6.13;;;;;;;33.69;31.38;101997.47;10632015;27;20046;-89
2023/12/29 10:21:31;;;;;;;6.35;3.85;;;;;;;32.67;32.40;102003.56;10566482;27;20525;-86
2023/12/29 10:26:54;;;;;;;30.53;20.13;;;;;;;31.69;33.69;101998.91;10576252;27;20036;-83
2023/12/29 10:32:19;;;;;;;11.57;6.85;;;;;;;31.79;33.59;101982.91;10601436;27;20039;-85
2023/12/29 10:37:41;;;;;;;9.15;7.75;;;;;;;31.84;33.78;101978.06;10602019;27;20050;-83
2023/12/29 10:43:06;;;;;;;19.40;12.05;;;;;;;30.74;35.06;101972.78;10603693;27;20037;-84
2023/12/29 10:48:31;;;;;;;5.20;3.80;;;;;;;30.66;34.98;101958.63;10561150;28;20055;-82
2023/12/29 10:53:56;;;;;;;10.82;6.72;;;;;;;27.49;40.17;101961.13;10585864;27;20042;-86
2023/12/29 10:59:20;;;;;;;6.03;4.28;;;;;;;25.57;45.22;101959.00;10611784;27;20062;-81
2023/12/29 11:04:44;;;;;;;8.68;6.15;;;;;;;27.05;45.18;101951.78;10594510;27;20046;-83
2023/12/29 11:10:13;;;;;;;6.35;5.57;;;;;;;27.01;44.63;101950.13;10627648;27;20486;-83
2023/12/29 11:15:36;;;;;;;7.00;5.45;;;;;;;26.35;47.25;101943.22;10637371;27;20073;-82
2023/12/29 11:21:00;;;;;;;24.45;15.38;;;;;;;25.35;51.61;101939.72;10568323;27;20051;-85
2023/12/29 11:26:24;;;;;;;15.65;9.90;;;;;;;24.66;56.07;101944.16;10598870;27;20035;-86
2023/12/29 11:31:49;;;;;;;8.15;5.65;;;;;;;24.13;60.74;101944.44;10609999;27;20058;-83
2023/12/29 11:37:28;;;;;;;8.40;5.93;;;;;;;23.82;64.95;101943.31;10601934;27;20379;-80
2023/12/29 11:42:53;;;;;;;9.32;5.82;;;;;;;24.00;65.22;101931.22;10600363;27;20577;-83
2023/12/29 11:48:55;;;;;;;7.65;4.32;;;;;;;24.51;62.23;101934.59;10605073;27;20062;-83
2023/12/29 11:54:26;;;;;;;5.95;4.70;;;;;;;24.47;62.33;101923.00;10500825;28;20139;-81
2023/12/29 11:59:49;;;;;;;7.55;5.13;;;;;;;23.72;69.21;101923.69;10532246;28;20040;-81
2023/12/29 12:05:12;;;;;;;11.65;5.70;;;;;;;23.31;74.01;101921.75;10534023;28;20040;-80
2023/12/29 12:10:39;;;;;;;7.05;4.70;;;;;;;23.24;76.12;101927.28;10546905;28;20058;-80
2023/12/29 12:16:02;;;;;;;7.33;4.77;;;;;;;23.00;79.81;101915.16;10552784;28;20573;-80
2023/12/29 12:21:26;;;;;;;7.15;4.65;;;;;;;23.47;79.10;101919.72;10529416;28;20092;-78
2023/12/29 12:26:50;;;;;;;6.25;4.68;;;;;;;24.25;73.37;101916.31;10529657;28;20051;-81
2023/12/29 12:32:13;;;;;;;6.47;4.50;;;;;;;24.09;70.63;101910.31;10562203;28;20415;-83
2023/12/29 12:37:35;;;;;;;9.82;5.88;;;;;;;23.48;76.10;101908.03;10539446;28;20141;-81
2023/12/29 12:43:03;;;;;;;8.52;5.03;;;;;;;23.18;78.67;101912.13;10562686;28;20056;-81
2023/12/29 12:48:35;;;;;;;8.30;4.57;;;;;;;23.20;78.16;101906.72;10564175;28;20059;-81
2023/12/29 12:53:57;;;;;;;6.95;5.00;;;;;;;23.10;77.48;101911.41;10578214;28;20415;-81
2023/12/29 12:59:22;;;;;;;8.48;5.60;;;;;;;22.97;79.65;101916.06;10537896;28;20132;-82
2023/12/29 13:04:45;;;;;;;7.97;5.07;;;;;;;22.74;82.14;101920.09;10545536;28;20051;-81
2023/12/29 13:10:09;;;;;;;10.23;7.70;;;;;;;22.54;84.97;101926.63;10567031;28;20054;-83
2023/12/29 13:15:33;;;;;;;10.70;5.25;;;;;;;22.09;88.27;101920.09;10508713;28;20139;-81
2023/12/29 13:20:55;;;;;;;7.05;5.68;;;;;;;21.92;90.51;101929.28;10518518;28;20054;-80
2023/12/29 13:26:20;;;;;;;9.10;5.60;;;;;;;21.85;91.08;101933.84;10559966;27;20097;-82
2023/12/29 13:31:45;;;;;;;9.35;6.57;;;;;;;21.74;92.76;101939.31;10562689;28;20043;-82
2023/12/29 13:37:19;;;;;;;9.20;6.07;;;;;;;21.65;93.93;101933.19;10549269;28;20051;-81
2023/12/29 13:42:45;;;;;;;8.18;5.50;;;;;;;21.50;96.00;101939.59;10570336;27;20150;-83
2023/12/29 13:48:11;;;;;;;11.00;6.28;;;;;;;21.28;97.11;101933.56;10580215;27;20085;-82
2023/12/29 13:53:34;;;;;;;9.07;6.03;;;;;;;20.98;99.35;101931.13;10589139;27;20146;-82
2023/12/29 13:58:56;;;;;;;9.07;5.53;;;;;;;20.82;100.00;101941.09;10565239;28;20510;-81
2023/12/29 14:04:21;;;;;;;10.30;7.32;;;;;;;20.74;100.00;101937.59;10555553;27;20047;-82
2023/12/29 14:09:43;;;;;;;8.82;6.18;;;;;;;20.66;100.00;101932.28;10575037;27;20043;-84
2023/12/29 14:15:07;;;;;;;7.70;5.70;;;;;;;20.55;100.00;101939.47;10572948;27;20054;-80
2023/12/29 14:20:38;;;;;;;10.75;7.22;;;;;;;20.45;100.00;101939.56;10557125;28;20054;-81
2023/12/29 14:26:04;;;;;;;8.63;7.30;;;;;;;20.32;100.00;101941.41;10575839;28;20058;-83
2023/12/29 14:31:26;;;;;;;7.80;6.80;;;;;;;20.21;100.00;101944.16;10560214;28;20051;-80
2023/12/29 14:36:50;;;;;;;8.02;6.38;;;;;;;20.15;100.00;101946.81;10559618;28;20419;-81
2023/12/29 14:42:14;;;;;;;10.38;6.55;;;;;;;20.06;100.00;101940.63;10587339;27;20138;-82
2023/12/29 14:47:37;;;;;;;11.68;6.28;;;;;;;20.03;100.00;101943.31;10574353;28;20059;-80
2023/12/29 14:53:01;;;;;;;10.05;7.20;;;;;;;19.95;100.00;101932.66;10529341;28;20051;-83
2023/12/29 14:58:24;;;;;;;14.55;8.82;;;;;;;19.87;100.00;101931.78;10572242;28;20766;-83
2023/12/29 15:03:46;;;;;;;16.30;10.85;;;;;;;19.78;100.00;101937.16;10567927;28;20047;-82
2023/12/29 15:09:11;;;;;;;14.02;11.00;;;;;;;19.62;100.00;101935.44;10572966;28;20052;-83
2023/12/29 15:14:34;;;;;;;16.35;11.32;;;;;;;19.42;100.00;101938.13;10570077;28;20134;-80
2023/12/29 15:19:57;;;;;;;17.65;11.90;;;;;;;19.38;100.00;101936.34;10570914;28;20047;-82
2023/12/29 15:25:23;;;;;;;13.52;10.73;;;;;;;19.34;100.00;101927.44;10558271;28;20040;-81
2023/12/29 15:30:46;;;;;;;12.40;9.90;;;;;;;19.41;100.00;101928.31;10572982;28;20083;-82
2023/12/29 15:36:13;;;;;;;13.90;12.40;;;;;;;19.41;100.00;101931.00;10568563;28;20047;-81
2023/12/29 15:41:37;;;;;;;37.15;18.65;;;;;;;19.34;100.00;101930.09;10586730;28;20058;-80
2023/12/29 15:47:00;;;;;;;45.95;29.60;;;;;;;19.20;100.00;101928.34;10577552;28;20096;-81
2023/12/29 15:52:26;;;;;;;31.35;21.73;;;;;;;19.00;100.00;101928.34;10575416;27;20051;-81
2023/12/29 15:57:50;;;;;;;34.55;30.88;;;;;;;18.90;100.00;101935.50;10586780;27;20048;-80
2023/12/29 16:03:12;;;;;;;43.45;38.30;;;;;;;18.92;100.00;101935.47;10578021;27;20593;-79
2023/12/29 16:08:35;;;;;;;47.05;42.28;;;;;;;18.86;100.00;101940.84;10565981;28;20051;-78
2023/12/29 16:13:59;;;;;;;22.42;18.27;;;;;;;18.75;100.00;101939.94;10580454;27;20047;-79
2023/12/29 16:19:22;;;;;;;19.10;13.70;;;;;;;18.63;100.00;101941.72;10549115;28;20100;-79
2023/12/29 16:24:44;;;;;;;20.70;14.90;;;;;;;18.65;100.00;101945.28;10563142;28;20120;-78
2023/12/29 16:30:10;;;;;;;12.45;9.90;;;;;;;18.51;100.00;101952.34;10575008;27;20059;-81
2023/12/29 16:35:32;;;;;;;13.57;8.88;;;;;;;18.25;100.00;101954.94;10577515;28;20048;-82
2023/12/29 16:40:55;;;;;;;10.15;7.70;;;;;;;18.00;100.00;101949.50;10550290;27;20044;-81
2023/12/29 16:46:19;;;;;;;15.43;9.52;;;;;;;17.87;100.00;101940.53;10577621;27;20049;-78
2023/12/29 16:51:42;;;;;;;19.23;13.75;;;;;;;17.76;100.00;101934.25;10598957;27;20043;-78
2023/12/29 16:57:06;;;;;;;17.05;14.70;;;;;;;17.57;100.00;101954.59;10616923;27;20107;-81
2023/12/29 17:02:30;;;;;;;22.92;19.80;;;;;;;17.42;100.00;101950.06;10590029;27;20059;-81
2023/12/29 17:07:53;;;;;;;15.25;9.07;;;;;;;17.08;100.00;101951.59;10608604;27;20051;-82
2023/12/29 17:13:15;;;;;;;17.05;11.00;;;;;;;16.96;100.00;101945.25;10644599;27;20046;-78
2023/12/29 17:18:39;;;;;;;17.70;9.05;;;;;;;16.66;100.00;101946.78;10624234;27;20436;-81
2023/12/29 17:24:02;;;;;;;12.45;9.13;;;;;;;16.59;100.00;101944.91;10608578;27;20082;-82
2023/12/29 17:29:26;;;;;;;11.35;8.48;;;;;;;16.40;100.00;101944.69;10616111;27;20047;-82
2023/12/29 17:34:50;;;;;;;18.20;11.85;;;;;;;16.31;100.00;101943.69;10596487;27;20094;-81
2023/12/29 17:40:13;;;;;;;13.80;12.43;;;;;;;16.19;100.00;101948.00;10617917;27;20047;-81
2023/12/29 17:45:35;;;;;;;15.27;10.90;;;;;;;16.08;100.00;101944.31;10584849;27;20053;-81
2023/12/29 17:50:59;;;;;;;16.77;10.85;;;;;;;15.89;100.00;101941.41;10590339;27;20047;-82
2023/12/29 17:56:21;;;;;;;13.43;9.32;;;;;;;15.57;100.00;101937.44;10552912;28;20096;-81
2023/12/29 18:01:44;;;;;;;14.68;9.40;;;;;;;15.36;100.00;101950.41;10606146;27;20043;-81
2023/12/29 18:07:08;;;;;;;13.23;9.50;;;;;;;15.04;100.00;101941.91;10606136;27;20453;-81
2023/12/29 18:12:31;;;;;;;13.52;8.70;;;;;;;14.83;100.00;101950.44;10608854;27;20043;-82
2023/12/29 18:17:53;;;;;;;9.95;8.20;;;;;;;14.87;100.00;101946.06;10615354;27;20586;-79
2023/12/29 18:23:18;;;;;;;14.30;12.27;;;;;;;15.15;100.00;101943.00;10613789;27;20069;-82
2023/12/29 18:28:43;;;;;;;18.58;11.90;;;;;;;15.24;100.00;101940.44;10599224;27;20489;-87
2023/12/29 18:34:05;;;;;;;19.10;15.43;;;;;;;15.01;100.00;101948.09;10619166;27;20067;-84
2023/12/29 18:39:30;;;;;;;15.27;11.00;;;;;;;14.87;100.00;101935.41;10599454;27;20050;-83
2023/12/29 18:44:54;;;;;;;11.77;9.73;;;;;;;14.85;100.00;101943.38;10568157;27;20054;-79
2023/12/29 18:50:17;;;;;;;18.45;10.98;;;;;;;14.70;100.00;101945.78;10599228;27;20096;-81
2023/12/29 18:55:44;;;;;;;20.48;11.68;;;;;;;14.89;100.00;101950.53;10603843;27;20046;-79
2023/12/29 19:01:06;;;;;;;38.45;23.88;;;;;;;15.13;100.00;101948.28;10589100;27;20479;-80
2023/12/29 19:06:29;;;;;;;23.90;16.85;;;;;;;15.32;100.00;101940.56;10599295;27;20071;-80
2023/12/29 19:11:53;;;;;;;17.25;12.43;;;;;;;15.50;100.00;101938.16;10621430;27;20051;-81
2023/12/29 19:17:15;;;;;;;34.28;24.63;;;;;;;15.69;100.00;101937.59;10579367;27;20055;-79
2023/12/29 19:22:43;;;;;;;14.80;12.98;;;;;;;15.79;100.00;101928.88;10590054;27;20053;-82
2023/12/29 19:28:07;;;;;;;26.83;18.92;;;;;;;15.64;100.00;101933.97;10616882;27;20129;-77
2023/12/29 19:33:30;;;;;;;20.63;14.05;;;;;;;15.36;100.00;101945.09;10609453;27;20043;-81
2023/12/29 19:38:52;;;;;;;29.77;21.38;;;;;;;15.30;100.00;101943.19;10632095;27;20122;-79
2023/12/29 19:44:17;;;;;;;54.53;39.10;;;;;;;15.43;100.00;101933.63;10621048;27;20043;-80
2023/12/29 19:49:42;;;;;;;18.38;13.50;;;;;;;15.47;100.00;101935.50;10629467;27;20050;-79
2023/12/29 19:55:05;;;;;;;17.58;12.10;;;;;;;15.36;100.00;101926.47;10595119;27;20108;-79
2023/12/29 20:00:28;;;;;;;28.02;22.35;;;;;;;15.33;100.00;101939.72;10608904;27;20054;-78
2023/12/29 20:05:52;;;;;;;16.83;10.18;;;;;;;15.61;100.00;101939.28;10613165;27;20061;-80
2023/12/29 20:11:14;;;;;;;18.55;12.40;;;;;;;15.74;100.00;101938.56;10623838;27;20063;-79
2023/12/29 20:16:39;;;;;;;21.00;17.38;;;;;;;15.73;100.00;101931.44;10587239;27;20055;-78
2023/12/29 20:22:01;;;;;;;16.02;12.93;;;;;;;15.63;100.00;101936.63;10593523;27;20046;-79
2023/12/29 20:27:24;;;;;;;12.77;9.90;;;;;;;15.57;100.00;101931.22;10595837;27;20391;-80
2023/12/29 20:32:48;;;;;;;10.35;8.35;;;;;;;15.67;100.00;101919.81;10617431;27;20043;-78
2023/12/29 20:38:11;;;;;;;18.73;13.30;;;;;;;15.86;100.00;101930.75;10598453;27;20447;-79
2023/12/29 20:43:33;;;;;;;16.95;11.90;;;;;;;15.84;100.00;101920.94;10595434;27;20043;-78
2023/12/29 20:48:57;;;;;;;17.00;10.77;;;;;;;15.52;100.00;101928.47;10587650;27;20130;-78
2023/12/29 20:54:21;;;;;;;17.50;10.45;;;;;;;15.21;100.00;101919.13;10594305;27;20058;-78
2023/12/29 20:59:43;;;;;;;16.70;10.23;;;;;;;14.90;100.00;101922.19;10591842;27;20479;-78
2023/12/29 21:05:10;;;;;;;13.38;9.00;;;;;;;14.80;100.00;101926.44;10618946;27;20047;-77
2023/12/29 21:10:32;;;;;;;12.00;9.35;;;;;;;15.07;100.00;101920.69;10604923;27;20066;-78
2023/12/29 21:15:55;;;;;;;11.10;7.88;;;;;;;15.33;100.00;101918.41;10586097;27;20046;-77
2023/12/29 21:21:19;;;;;;;13.18;8.55;;;;;;;15.35;100.00;101914.94;10632474;27;20095;-77
2023/12/29 21:26:42;;;;;;;10.80;9.07;;;;;;;15.48;100.00;101902.69;10612563;27;20115;-79
2023/12/29 21:32:05;;;;;;;14.30;8.25;;;;;;;15.63;100.00;101900.25;10634655;27;20050;-80
2023/12/29 21:37:30;;;;;;;9.10;6.57;;;;;;;15.81;100.00;101900.50;10608954;27;20051;-78
2023/12/29 21:42:52;;;;;;;12.77;8.43;;;;;;;15.94;100.00;101902.44;10641331;27;20557;-78
2023/12/29 21:48:17;;;;;;;14.20;8.35;;;;;;;15.89;100.00;101888.16;10633229;27;20486;-79
2023/12/29 21:53:41;;;;;;;12.02;9.00;;;;;;;15.96;100.00;101891.78;10643955;27;20043;-78
2023/12/29 21:59:03;;;;;;;11.60;7.93;;;;;;;15.96;100.00;101881.13;10598445;27;20051;-80
2023/12/29 22:04:26;;;;;;;12.48;8.27;;;;;;;15.95;100.00;101868.69;10603811;27;20043;-80
2023/12/29 22:09:50;;;;;;;26.27;14.95;;;;;;;16.00;100.00;101879.41;10619357;27;20062;-79
2023/12/29 22:15:13;;;;;;;17.67;12.30;;;;;;;16.01;100.00;101875.88;10632085;27;20043;-78
2023/12/29 22:20:38;;;;;;;42.63;34.83;;;;;;;15.95;100.00;101863.34;10644914;27;20046;-79
2023/12/29 22:26:02;;;;;;;12.02;9.40;;;;;;;16.02;100.00;101861.66;10644946;27;20046;-78
2023/12/29 22:31:25;;;;;;;13.20;9.00;;;;;;;15.99;100.00;101859.88;10645993;27;20123;-78
2023/12/29 22:36:47;;;;;;;12.65;9.90;;;;;;;15.92;100.00;101855.34;10645601;27;20431;-78
2023/12/29 22:42:11;;;;;;;11.10;7.82;;;;;;;15.98;100.00;101860.72;10608583;27;20080;-79
2023/12/29 22:47:33;;;;;;;11.32;7.28;;;;;;;15.96;100.00;101843.84;10603069;27;20518;-78
2023/12/29 22:52:56;;;;;;;11.00;7.55;;;;;;;15.72;100.00;101847.13;10627951;27;20410;-80
2023/12/29 22:58:21;;;;;;;10.73;7.05;;;;;;;15.85;100.00;101833.06;10627320;27;20091;-80
2023/12/29 23:03:43;;;;;;;10.20;7.25;;;;;;;16.04;100.00;101844.81;10593683;27;20077;-79
2023/12/29 23:09:06;;;;;;;13.07;9.70;;;;;;;16.17;100.00;101846.72;10631304;27;20050;-79
2023/12/29 23:14:31;;;;;;;11.73;8.75;;;;;;;16.29;100.00;101851.28;10651428;27;20049;-78
2023/12/29 23:19:54;;;;;;;13.90;8.80;;;;;;;16.41;100.00;101840.72;10620257;27;20050;-80
2023/12/29 23:25:16;;;;;;;11.88;7.40;;;;;;;16.31;100.00;101845.09;10617349;27;20049;-79
2023/12/29 23:30:41;;;;;;;9.45;6.65;;;;;;;16.37;100.00;101843.38;10615346;27;20130;-79
2023/12/29 23:36:03;;;;;;;11.48;6.28;;;;;;;16.43;100.00;101849.66;10612368;27;20138;-78
2023/12/29 23:41:26;;;;;;;10.07;6.28;;;;;;;16.45;100.00;101837.22;10625108;27;20100;-78
2023/12/29 23:46:50;;;;;;;8.43;6.65;;;;;;;16.32;100.00;101838.91;10617032;27;20074;-79
2023/12/29 23:52:12;;;;;;;8.73;7.13;;;;;;;16.21;100.00;101829.03;10610065;27;20043;-78
2023/12/29 23:57:38;;;;;;;8.73;6.38;;;;;;;15.84;100.00;101841.94;10646909;27;20069;-79
